Time;durP1;ratioP1;P1;durP2;ratioP2;P2;SDS_P1;SDS_P2;PMS_P1;PMS_P2;Temp;Humidity;BMP_temperature;BMP_pressure;BME280_temperature;BME280_humidity;BME280_pressure;Samples;Min_cycle;Max_cycle;Signal;HPM_P1;HPM_P2
2023/02/02 00:22:32;;;;;;;;;29.00;24.25;;;;;;;;5950776;39;10000854;-59
2023/02/02 00:28:35;;;;;;;;;31.75;28.00;;;;;;;;6490331;46;8985;-60
2023/02/02 00:34:37;;;;;;;;;24.50;23.50;;;;;;;;6491611;39;8875;-60
2023/02/02 00:40:41;;;;;;;;;28.25;26.00;;;;;;;;6490422;46;8898;-59
2023/02/02 00:46:43;;;;;;;;;30.00;24.75;;;;;;;;6489548;31;8895;-60
2023/02/02 00:52:47;;;;;;;;;23.50;18.75;;;;;;;;6490380;47;8859;-59
2023/02/02 00:58:49;;;;;;;;;22.50;22.50;;;;;;;;6490561;39;8986;-59
2023/02/02 01:04:53;;;;;;;;;27.50;22.50;;;;;;;;6490690;46;8860;-59
2023/02/02 01:10:58;;;;;;;;;21.75;18.75;;;;;;;;6362807;36;10008236;-59
2023/02/02 01:17:00;;;;;;;;;21.00;20.00;;;;;;;;6491348;39;8969;-58
2023/02/02 01:23:03;;;;;;;;;32.00;25.00;;;;;;;;6491393;39;8863;-58
2023/02/02 01:29:05;;;;;;;;;18.25;16.75;;;;;;;;6490547;39;9011;-59
2023/02/02 01:35:09;;;;;;;;;20.50;19.00;;;;;;;;6492045;31;9471;-59
2023/02/02 01:41:15;;;;;;;;;25.50;20.00;;;;;;;;6490162;46;8871;-59
2023/02/02 01:47:21;;;;;;;;;20.50;18.50;;;;;;;;6490241;46;8863;-59
2023/02/02 01:53:23;;;;;;;;;18.75;18.25;;;;;;;;6490490;39;9463;-59
2023/02/02 01:59:28;;;;;;;;;19.25;18.50;;;;;;;;6490078;39;8946;-59
2023/02/02 02:05:36;;;;;;;;;18.25;17.50;;;;;;;;6491758;39;9637;-61
2023/02/02 02:11:38;;;;;;;;;21.75;18.25;;;;;;;;6489013;39;8938;-59
2023/02/02 02:17:46;;;;;;;;;20.00;14.50;;;;;;;;6490114;46;8923;-60
2023/02/02 02:31:23;;;;;;;;;22.50;20.00;;;;;;;;6490183;39;8871;-59
2023/02/02 02:37:45;;;;;;;;;26.00;18.75;;;;;;;;6489401;46;8891;-59
2023/02/02 02:43:56;;;;;;;;;20.00;18.00;;;;;;;;6490433;31;8855;-59
2023/02/02 02:50:02;;;;;;;;;24.75;19.00;;;;;;;;6489965;39;8905;-59
2023/02/02 02:56:46;;;;;;;;;23.50;21.25;;;;;;;;6490459;31;8918;-60
2023/02/02 03:03:16;;;;;;;;;14.50;13.75;;;;;;;;6489801;39;8926;-59
2023/02/02 03:09:24;;;;;;;;;10.00;10.00;;;;;;;;6490377;31;8871;-60
2023/02/02 03:15:28;;;;;;;;;18.00;16.00;;;;;;;;6490209;39;8899;-59
2023/02/02 03:21:33;;;;;;;;;19.50;17.50;;;;;;;;6489016;46;8914;-59
2023/02/02 03:27:36;;;;;;;;;19.00;19.00;;;;;;;;6487423;47;8887;-59
2023/02/02 03:33:38;;;;;;;;;20.00;19.50;;;;;;;;6488214;39;8891;-59
2023/02/02 03:39:42;;;;;;;;;12.75;12.75;;;;;;;;6489063;31;8914;-59
2023/02/02 03:45:45;;;;;;;;;21.00;18.00;;;;;;;;6488452;39;8875;-59
2023/02/02 03:51:47;;;;;;;;;13.25;13.25;;;;;;;;6488082;46;8991;-59
2023/02/02 03:57:50;;;;;;;;;13.00;12.75;;;;;;;;6487587;31;8937;-58
2023/02/02 04:03:55;;;;;;;;;14.00;12.50;;;;;;;;6487963;39;8946;-57
2023/02/02 04:09:57;;;;;;;;;22.50;16.50;;;;;;;;6488415;39;8879;-59
2023/02/02 04:16:00;;;;;;;;;22.50;19.00;;;;;;;;6488887;39;8911;-58
2023/02/02 04:22:02;;;;;;;;;15.25;15.25;;;;;;;;6488031;46;8907;-59
2023/02/02 04:28:04;;;;;;;;;14.75;13.00;;;;;;;;6489281;39;8958;-59
2023/02/02 04:34:08;;;;;;;;;18.25;14.00;;;;;;;;6487719;46;9012;-60
2023/02/02 04:40:11;;;;;;;;;16.75;16.75;;;;;;;;6488398;39;9585;-59
2023/02/02 04:46:13;;;;;;;;;18.00;15.25;;;;;;;;6487606;39;8986;-61
2023/02/02 04:52:16;;;;;;;;;20.00;16.75;;;;;;;;6488396;31;8931;-59
2023/02/02 04:58:18;;;;;;;;;15.50;15.50;;;;;;;;6487437;39;8915;-59
2023/02/02 05:04:23;;;;;;;;;15.50;13.50;;;;;;;;6461263;47;9036;-62
2023/02/02 05:10:27;;;;;;;;;15.75;15.00;;;;;;;;6488220;46;8855;-63
2023/02/02 05:16:29;;;;;;;;;18.25;15.50;;;;;;;;6489307;39;8905;-62
